sensor_id;sensor_type;location;lat;lon;timestamp;pressure;altitude;pressure_sealevel;temperature;humidity
49645;BME280;36494;50.730;-1.932;2022-09-03T00:01:17;100341.47;;;16.67;100.00
49645;BME280;36494;50.730;-1.932;2022-09-03T00:03:41;100342.57;;;16.62;100.00
49645;BME280;36494;50.730;-1.932;2022-09-03T00:06:08;100337.38;;;16.63;100.00
49645;BME280;36494;50.730;-1.932;2022-09-03T00:08:32;100335.09;;;16.70;100.00
49645;BME280;36494;50.730;-1.932;2022-09-03T00:10:57;100333.00;;;16.70;100.00
49645;BME280;36494;50.730;-1.932;2022-09-03T00:13:23;100328.94;;;16.70;100.00
49645;BME280;36494;50.730;-1.932;2022-09-03T00:15:45;100326.46;;;16.66;100.00
49645;BME280;36494;50.730;-1.932;2022-09-03T00:18:14;100323.59;;;16.67;100.00
49645;BME280;36494;50.730;-1.932;2022-09-03T00:20:39;100322.97;;;16.66;100.00
49645;BME280;36494;50.730;-1.932;2022-09-03T00:23:04;100321.75;;;16.65;100.00
49645;BME280;36494;50.730;-1.932;2022-09-03T00:25:33;100316.97;;;16.65;100.00
49645;BME280;36494;50.730;-1.932;2022-09-03T00:27:54;100316.91;;;16.63;100.00
49645;BME280;36494;50.730;-1.932;2022-09-03T00:30:18;100314.95;;;16.61;100.00
49645;BME280;36494;50.730;-1.932;2022-09-03T00:32:47;100311.80;;;16.55;100.00
49645;BME280;36494;50.730;-1.932;2022-09-03T00:35:15;100312.82;;;16.53;100.00
49645;BME280;36494;50.730;-1.932;2022-09-03T00:37:34;100311.02;;;16.51;100.00
49645;BME280;36494;50.730;-1.932;2022-09-03T00:39:59;100307.40;;;16.48;100.00
49645;BME280;36494;50.730;-1.932;2022-09-03T00:42:37;100303.73;;;16.46;100.00
49645;BME280;36494;50.730;-1.932;2022-09-03T00:45:00;100303.69;;;16.43;100.00
49645;BME280;36494;50.730;-1.932;2022-09-03T00:47:23;100307.84;;;16.41;100.00
49645;BME280;36494;50.730;-1.932;2022-09-03T00:49:50;100309.80;;;16.38;100.00
49645;BME280;36494;50.730;-1.932;2022-09-03T00:52:13;100307.27;;;16.35;100.00
49645;BME280;36494;50.730;-1.932;2022-09-03T00:54:39;100301.23;;;16.31;100.00
49645;BME280;36494;50.730;-1.932;2022-09-03T00:57:11;100297.55;;;16.29;100.00
49645;BME280;36494;50.730;-1.932;2022-09-03T00:59:31;100298.73;;;16.25;100.00
49645;BME280;36494;50.730;-1.932;2022-09-03T01:01:54;100300.14;;;16.22;100.00
49645;BME280;36494;50.730;-1.932;2022-09-03T01:04:26;100304.65;;;16.19;100.00
49645;BME280;36494;50.730;-1.932;2022-09-03T01:06:43;100306.29;;;16.16;100.00
49645;BME280;36494;50.730;-1.932;2022-09-03T01:09:15;100305.72;;;16.15;100.00
49645;BME280;36494;50.730;-1.932;2022-09-03T01:11:37;100304.15;;;16.12;100.00
49645;BME280;36494;50.730;-1.932;2022-09-03T01:14:02;100302.28;;;16.10;100.00
49645;BME280;36494;50.730;-1.932;2022-09-03T01:16:25;100299.39;;;16.09;100.00
49645;BME280;36494;50.730;-1.932;2022-09-03T01:18:52;100298.70;;;16.09;100.00
49645;BME280;36494;50.730;-1.932;2022-09-03T01:21:27;100298.82;;;16.08;100.00
49645;BME280;36494;50.730;-1.932;2022-09-03T01:23:51;100299.17;;;16.05;100.00
49645;BME280;36494;50.730;-1.932;2022-09-03T01:26:15;100298.40;;;16.03;100.00
49645;BME280;36494;50.730;-1.932;2022-09-03T01:28:41;100301.41;;;16.00;100.00
49645;BME280;36494;50.730;-1.932;2022-09-03T01:30:57;100302.04;;;16.00;100.00
49645;BME280;36494;50.730;-1.932;2022-09-03T01:33:22;100301.93;;;15.98;100.00
49645;BME280;36494;50.730;-1.932;2022-09-03T01:35:47;100303.32;;;16.00;100.00
49645;BME280;36494;50.730;-1.932;2022-09-03T01:38:19;100304.34;;;16.00;100.00
49645;BME280;36494;50.730;-1.932;2022-09-03T01:40:41;100301.27;;;16.01;100.00
49645;BME280;36494;50.730;-1.932;2022-09-03T01:43:12;100295.07;;;15.97;100.00
49645;BME280;36494;50.730;-1.932;2022-09-03T01:45:36;100293.21;;;15.99;100.00
49645;BME280;36494;50.730;-1.932;2022-09-03T01:48:01;100297.24;;;16.01;100.00
49645;BME280;36494;50.730;-1.932;2022-09-03T01:50:27;100296.52;;;16.00;100.00
49645;BME280;36494;50.730;-1.932;2022-09-03T01:52:53;100295.13;;;16.01;100.00
49645;BME280;36494;50.730;-1.932;2022-09-03T01:55:19;100295.62;;;16.01;100.00
49645;BME280;36494;50.730;-1.932;2022-09-03T01:57:42;100296.22;;;16.01;100.00
49645;BME280;36494;50.730;-1.932;2022-09-03T02:00:14;100302.13;;;16.02;100.00
49645;BME280;36494;50.730;-1.932;2022-09-03T02:02:27;100304.95;;;16.02;100.00
49645;BME280;36494;50.730;-1.932;2022-09-03T02:04:57;100304.20;;;16.05;100.00
49645;BME280;36494;50.730;-1.932;2022-09-03T02:07:15;100301.70;;;16.09;100.00
49645;BME280;36494;50.730;-1.932;2022-09-03T02:09:41;100298.43;;;16.08;100.00
49645;BME280;36494;50.730;-1.932;2022-09-03T02:12:09;100293.78;;;16.09;100.00
49645;BME280;36494;50.730;-1.932;2022-09-03T02:14:33;100290.57;;;16.10;100.00
49645;BME280;36494;50.730;-1.932;2022-09-03T02:16:59;100288.59;;;16.12;100.00
49645;BME280;36494;50.730;-1.932;2022-09-03T02:19:26;100290.24;;;16.16;100.00
49645;BME280;36494;50.730;-1.932;2022-09-03T02:21:52;100290.78;;;16.17;100.00
49645;BME280;36494;50.730;-1.932;2022-09-03T02:24:14;100290.70;;;16.23;100.00
49645;BME280;36494;50.730;-1.932;2022-09-03T02:26:40;100290.74;;;16.25;100.00
49645;BME280;36494;50.730;-1.932;2022-09-03T02:29:05;100289.19;;;16.25;100.00
49645;BME280;36494;50.730;-1.932;2022-09-03T02:31:31;100287.38;;;16.26;100.00
49645;BME280;36494;50.730;-1.932;2022-09-03T02:33:56;100287.44;;;16.23;100.00
49645;BME280;36494;50.730;-1.932;2022-09-03T02:36:26;100288.68;;;16.21;100.00
49645;BME280;36494;50.730;-1.932;2022-09-03T02:38:48;100289.64;;;16.19;100.00
49645;BME280;36494;50.730;-1.932;2022-09-03T02:41:13;100291.40;;;16.15;100.00
49645;BME280;36494;50.730;-1.932;2022-09-03T02:43:41;100289.93;;;16.13;100.00
49645;BME280;36494;50.730;-1.932;2022-09-03T02:46:06;100286.11;;;16.10;100.00
49645;BME280;36494;50.730;-1.932;2022-09-03T02:48:30;100283.39;;;16.08;100.00
49645;BME280;36494;50.730;-1.932;2022-09-03T02:50:55;100282.82;;;16.05;100.00
49645;BME280;36494;50.730;-1.932;2022-09-03T02:53:21;100279.71;;;16.00;100.00
49645;BME280;36494;50.730;-1.932;2022-09-03T02:55:47;100279.62;;;16.02;100.00
49645;BME280;36494;50.730;-1.932;2022-09-03T02:58:12;100278.39;;;16.01;100.00
49645;BME280;36494;50.730;-1.932;2022-09-03T03:00:38;100275.84;;;16.00;100.00
49645;BME280;36494;50.730;-1.932;2022-09-03T03:03:05;100273.33;;;15.97;100.00
49645;BME280;36494;50.730;-1.932;2022-09-03T03:05:42;100269.63;;;15.92;100.00
49645;BME280;36494;50.730;-1.932;2022-09-03T03:07:55;100269.82;;;15.89;100.00
49645;BME280;36494;50.730;-1.932;2022-09-03T03:10:20;100273.39;;;15.86;100.00
49645;BME280;36494;50.730;-1.932;2022-09-03T03:12:46;100274.62;;;15.83;100.00
49645;BME280;36494;50.730;-1.932;2022-09-03T03:15:11;100273.46;;;15.80;100.00
49645;BME280;36494;50.730;-1.932;2022-09-03T03:17:37;100266.37;;;15.80;100.00
49645;BME280;36494;50.730;-1.932;2022-09-03T03:20:04;100262.82;;;15.77;100.00
49645;BME280;36494;50.730;-1.932;2022-09-03T03:22:28;100264.24;;;15.75;100.00
49645;BME280;36494;50.730;-1.932;2022-09-03T03:24:54;100264.50;;;15.74;100.00
49645;BME280;36494;50.730;-1.932;2022-09-03T03:27:19;100264.50;;;15.71;100.00
49645;BME280;36494;50.730;-1.932;2022-09-03T03:29:44;100264.81;;;15.69;100.00
49645;BME280;36494;50.730;-1.932;2022-09-03T03:32:09;100268.91;;;15.66;100.00
49645;BME280;36494;50.730;-1.932;2022-09-03T03:34:35;100270.82;;;15.62;100.00
49645;BME280;36494;50.730;-1.932;2022-09-03T03:37:00;100274.31;;;15.60;100.00
49645;BME280;36494;50.730;-1.932;2022-09-03T03:39:25;100278.10;;;15.58;100.00
49645;BME280;36494;50.730;-1.932;2022-09-03T03:41:51;100278.66;;;15.56;100.00
49645;BME280;36494;50.730;-1.932;2022-09-03T03:44:16;100276.70;;;15.54;100.00
49645;BME280;36494;50.730;-1.932;2022-09-03T03:46:42;100275.42;;;15.52;100.00
49645;BME280;36494;50.730;-1.932;2022-09-03T03:49:07;100272.48;;;15.50;100.00
49645;BME280;36494;50.730;-1.932;2022-09-03T03:51:32;100268.15;;;15.48;100.00
49645;BME280;36494;50.730;-1.932;2022-09-03T03:53:58;100268.58;;;15.47;100.00
49645;BME280;36494;50.730;-1.932;2022-09-03T03:56:24;100268.55;;;15.46;100.00
49645;BME280;36494;50.730;-1.932;2022-09-03T03:58:48;100266.77;;;15.42;100.00
49645;BME280;36494;50.730;-1.932;2022-09-03T04:01:15;100265.76;;;15.41;100.00
49645;BME280;36494;50.730;-1.932;2022-09-03T04:03:40;100264.97;;;15.40;100.00
49645;BME280;36494;50.730;-1.932;2022-09-03T04:06:05;100262.34;;;15.39;100.00
49645;BME280;36494;50.730;-1.932;2022-09-03T04:08:32;100256.40;;;15.38;100.00
49645;BME280;36494;50.730;-1.932;2022-09-03T04:10:59;100255.20;;;15.36;100.00
49645;BME280;36494;50.730;-1.932;2022-09-03T04:13:21;100253.14;;;15.33;100.00
49645;BME280;36494;50.730;-1.932;2022-09-03T04:15:46;100254.53;;;15.32;100.00
49645;BME280;36494;50.730;-1.932;2022-09-03T04:18:11;100254.49;;;15.32;100.00
49645;BME280;36494;50.730;-1.932;2022-09-03T04:20:37;100254.75;;;15.32;100.00
49645;BME280;36494;50.730;-1.932;2022-09-03T04:23:03;100254.75;;;15.30;100.00
49645;BME280;36494;50.730;-1.932;2022-09-03T04:25:28;100251.08;;;15.28;100.00
49645;BME280;36494;50.730;-1.932;2022-09-03T04:27:54;100251.88;;;15.28;100.00
49645;BME280;36494;50.730;-1.932;2022-09-03T04:30:20;100252.25;;;15.28;100.00
49645;BME280;36494;50.730;-1.932;2022-09-03T04:32:48;100250.79;;;15.27;100.00
49645;BME280;36494;50.730;-1.932;2022-09-03T04:35:10;100252.98;;;15.23;100.00
49645;BME280;36494;50.730;-1.932;2022-09-03T04:37:36;100253.33;;;15.22;100.00
49645;BME280;36494;50.730;-1.932;2022-09-03T04:40:02;100248.83;;;15.25;100.00
49645;BME280;36494;50.730;-1.932;2022-09-03T04:42:26;100244.81;;;15.22;100.00
49645;BME280;36494;50.730;-1.932;2022-09-03T04:44:52;100241.54;;;15.21;100.00
49645;BME280;36494;50.730;-1.932;2022-09-03T04:47:17;100237.34;;;15.20;100.00
49645;BME280;36494;50.730;-1.932;2022-09-03T04:49:42;100231.46;;;15.20;100.00
49645;BME280;36494;50.730;-1.932;2022-09-03T04:52:07;100232.91;;;15.18;100.00
49645;BME280;36494;50.730;-1.932;2022-09-03T04:54:32;100233.11;;;15.22;100.00
49645;BME280;36494;50.730;-1.932;2022-09-03T04:56:58;100232.28;;;15.21;100.00
49645;BME280;36494;50.730;-1.932;2022-09-03T04:59:23;100234.39;;;15.19;100.00
49645;BME280;36494;50.730;-1.932;2022-09-03T05:01:48;100233.70;;;15.18;100.00
49645;BME280;36494;50.730;-1.932;2022-09-03T05:04:13;100237.11;;;15.18;100.00
49645;BME280;36494;50.730;-1.932;2022-09-03T05:06:39;100240.34;;;15.19;100.00
49645;BME280;36494;50.730;-1.932;2022-09-03T05:09:05;100238.48;;;15.20;100.00
49645;BME280;36494;50.730;-1.932;2022-09-03T05:11:30;100237.44;;;15.22;100.00
49645;BME280;36494;50.730;-1.932;2022-09-03T05:13:58;100237.82;;;15.24;100.00
49645;BME280;36494;50.730;-1.932;2022-09-03T05:16:22;100238.60;;;15.26;100.00
49645;BME280;36494;50.730;-1.932;2022-09-03T05:18:47;100239.92;;;15.28;100.00
49645;BME280;36494;50.730;-1.932;2022-09-03T05:21:14;100238.37;;;15.31;100.00
49645;BME280;36494;50.730;-1.932;2022-09-03T05:23:39;100240.22;;;15.33;100.00
49645;BME280;36494;50.730;-1.932;2022-09-03T05:26:07;100238.54;;;15.36;100.00
49645;BME280;36494;50.730;-1.932;2022-09-03T05:28:30;100237.80;;;15.37;100.00
49645;BME280;36494;50.730;-1.932;2022-09-03T05:30:59;100239.08;;;15.39;100.00
49645;BME280;36494;50.730;-1.932;2022-09-03T05:33:21;100241.17;;;15.42;100.00
49645;BME280;36494;50.730;-1.932;2022-09-03T05:35:46;100243.29;;;15.43;100.00
49645;BME280;36494;50.730;-1.932;2022-09-03T05:38:11;100244.05;;;15.44;100.00
49645;BME280;36494;50.730;-1.932;2022-09-03T05:40:37;100243.95;;;15.45;100.00
49645;BME280;36494;50.730;-1.932;2022-09-03T05:43:02;100245.48;;;15.46;100.00
49645;BME280;36494;50.730;-1.932;2022-09-03T05:45:27;100245.84;;;15.48;100.00
49645;BME280;36494;50.730;-1.932;2022-09-03T05:47:52;100247.19;;;15.50;100.00
49645;BME280;36494;50.730;-1.932;2022-09-03T05:50:18;100246.27;;;15.51;100.00
49645;BME280;36494;50.730;-1.932;2022-09-03T05:52:44;100245.40;;;15.51;100.00
49645;BME280;36494;50.730;-1.932;2022-09-03T05:55:09;100247.80;;;15.53;100.00
49645;BME280;36494;50.730;-1.932;2022-09-03T05:57:34;100248.63;;;15.54;100.00
49645;BME280;36494;50.730;-1.932;2022-09-03T05:59:59;100250.38;;;15.56;100.00
49645;BME280;36494;50.730;-1.932;2022-09-03T06:02:25;100253.19;;;15.58;100.00
49645;BME280;36494;50.730;-1.932;2022-09-03T06:04:50;100254.30;;;15.60;100.00
49645;BME280;36494;50.730;-1.932;2022-09-03T06:07:16;100259.56;;;15.63;100.00
49645;BME280;36494;50.730;-1.932;2022-09-03T06:09:41;100260.30;;;15.66;100.00
49645;BME280;36494;50.730;-1.932;2022-09-03T06:12:06;100260.26;;;15.69;100.00
49645;BME280;36494;50.730;-1.932;2022-09-03T06:14:31;100261.60;;;15.73;100.00
49645;BME280;36494;50.730;-1.932;2022-09-03T06:16:57;100261.75;;;15.78;100.00
49645;BME280;36494;50.730;-1.932;2022-09-03T06:19:23;100262.25;;;15.82;100.00
49645;BME280;36494;50.730;-1.932;2022-09-03T06:21:48;100264.34;;;15.85;100.00
49645;BME280;36494;50.730;-1.932;2022-09-03T06:24:15;100266.42;;;15.90;100.00
49645;BME280;36494;50.730;-1.932;2022-09-03T06:26:39;100268.86;;;15.93;100.00
49645;BME280;36494;50.730;-1.932;2022-09-03T06:29:05;100270.17;;;15.98;100.00
49645;BME280;36494;50.730;-1.932;2022-09-03T06:31:30;100275.83;;;16.08;100.00
49645;BME280;36494;50.730;-1.932;2022-09-03T06:33:56;100279.53;;;16.15;100.00
49645;BME280;36494;50.730;-1.932;2022-09-03T06:36:22;100278.23;;;16.17;100.00
49645;BME280;36494;50.730;-1.932;2022-09-03T06:38:50;100280.31;;;16.26;100.00
49645;BME280;36494;50.730;-1.932;2022-09-03T06:41:14;100281.94;;;16.33;100.00
49645;BME280;36494;50.730;-1.932;2022-09-03T06:43:40;100286.79;;;16.40;100.00
49645;BME280;36494;50.730;-1.932;2022-09-03T06:46:06;100288.79;;;16.50;100.00
49645;BME280;36494;50.730;-1.932;2022-09-03T06:48:31;100290.53;;;16.54;100.00
49645;BME280;36494;50.730;-1.932;2022-09-03T06:50:56;100291.49;;;16.61;100.00
49645;BME280;36494;50.730;-1.932;2022-09-03T06:53:22;100290.29;;;16.67;100.00
49645;BME280;36494;50.730;-1.932;2022-09-03T06:55:52;100292.35;;;16.74;100.00
49645;BME280;36494;50.730;-1.932;2022-09-03T06:58:10;100292.22;;;16.80;100.00
49645;BME280;36494;50.730;-1.932;2022-09-03T07:00:35;100292.79;;;16.87;100.00
49645;BME280;36494;50.730;-1.932;2022-09-03T07:03:00;100291.89;;;16.93;100.00
49645;BME280;36494;50.730;-1.932;2022-09-03T07:05:25;100291.08;;;16.98;100.00
49645;BME280;36494;50.730;-1.932;2022-09-03T07:07:51;100294.10;;;17.05;100.00
49645;BME280;36494;50.730;-1.932;2022-09-03T07:10:17;100292.18;;;17.12;100.00
49645;BME280;36494;50.730;-1.932;2022-09-03T07:12:43;100294.18;;;17.20;100.00
49645;BME280;36494;50.730;-1.932;2022-09-03T07:15:09;100293.16;;;17.28;100.00
49645;BME280;36494;50.730;-1.932;2022-09-03T07:17:33;100289.99;;;17.29;100.00
49645;BME280;36494;50.730;-1.932;2022-09-03T07:19:59;100293.62;;;17.25;100.00
49645;BME280;36494;50.730;-1.932;2022-09-03T07:22:24;100292.22;;;17.32;100.00
49645;BME280;36494;50.730;-1.932;2022-09-03T07:24:49;100295.17;;;17.38;100.00
49645;BME280;36494;50.730;-1.932;2022-09-03T07:27:16;100295.24;;;17.45;100.00
49645;BME280;36494;50.730;-1.932;2022-09-03T07:29:41;100295.56;;;17.46;100.00
49645;BME280;36494;50.730;-1.932;2022-09-03T07:32:06;100292.65;;;17.54;100.00
49645;BME280;36494;50.730;-1.932;2022-09-03T07:34:32;100294.26;;;17.62;100.00
49645;BME280;36494;50.730;-1.932;2022-09-03T07:36:57;100292.57;;;17.65;100.00
49645;BME280;36494;50.730;-1.932;2022-09-03T07:39:23;100293.06;;;17.67;100.00
49645;BME280;36494;50.730;-1.932;2022-09-03T07:41:48;100294.69;;;17.75;100.00
49645;BME280;36494;50.730;-1.932;2022-09-03T07:44:15;100294.68;;;17.76;100.00
49645;BME280;36494;50.730;-1.932;2022-09-03T07:46:39;100293.18;;;17.88;100.00
49645;BME280;36494;50.730;-1.932;2022-09-03T07:49:05;100292.29;;;17.91;100.00
49645;BME280;36494;50.730;-1.932;2022-09-03T07:51:33;100292.82;;;17.99;100.00
49645;BME280;36494;50.730;-1.932;2022-09-03T07:53:58;100295.63;;;18.12;100.00
49645;BME280;36494;50.730;-1.932;2022-09-03T07:56:22;100295.94;;;18.08;100.00
49645;BME280;36494;50.730;-1.932;2022-09-03T07:58:47;100295.96;;;18.16;100.00
49645;BME280;36494;50.730;-1.932;2022-09-03T08:01:14;100295.01;;;18.26;100.00
49645;BME280;36494;50.730;-1.932;2022-09-03T08:03:41;100297.02;;;18.23;100.00
49645;BME280;36494;50.730;-1.932;2022-09-03T08:06:06;100299.40;;;18.26;100.00
49645;BME280;36494;50.730;-1.932;2022-09-03T08:08:29;100297.15;;;18.28;100.00
49645;BME280;36494;50.730;-1.932;2022-09-03T08:10:55;100295.69;;;18.28;100.00
49645;BME280;36494;50.730;-1.932;2022-09-03T08:13:20;100299.09;;;18.21;100.00
49645;BME280;36494;50.730;-1.932;2022-09-03T08:15:54;100299.99;;;18.21;100.00
49645;BME280;36494;50.730;-1.932;2022-09-03T08:18:11;100300.55;;;18.18;100.00
49645;BME280;36494;50.730;-1.932;2022-09-03T08:20:36;100303.78;;;18.13;100.00
49645;BME280;36494;50.730;-1.932;2022-09-03T08:23:02;100308.13;;;18.14;100.00
49645;BME280;36494;50.730;-1.932;2022-09-03T08:25:27;100306.93;;;18.15;100.00
49645;BME280;36494;50.730;-1.932;2022-09-03T08:27:52;100310.36;;;18.20;100.00
49645;BME280;36494;50.730;-1.932;2022-09-03T08:30:17;100311.30;;;18.24;100.00
49645;BME280;36494;50.730;-1.932;2022-09-03T08:32:42;100310.73;;;18.33;100.00
49645;BME280;36494;50.730;-1.932;2022-09-03T08:35:09;100312.94;;;18.37;100.00
49645;BME280;36494;50.730;-1.932;2022-09-03T08:37:34;100312.45;;;18.35;100.00
49645;BME280;36494;50.730;-1.932;2022-09-03T08:39:59;100316.37;;;18.41;100.00
49645;BME280;36494;50.730;-1.932;2022-09-03T08:42:32;100319.43;;;18.35;100.00
49645;BME280;36494;50.730;-1.932;2022-09-03T08:44:52;100319.32;;;18.42;100.00
49645;BME280;36494;50.730;-1.932;2022-09-03T08:47:20;100319.22;;;18.36;100.00
49645;BME280;36494;50.730;-1.932;2022-09-03T08:49:45;100323.94;;;18.34;100.00
49645;BME280;36494;50.730;-1.932;2022-09-03T08:52:20;100328.57;;;18.43;100.00
49645;BME280;36494;50.730;-1.932;2022-09-03T08:54:32;100331.44;;;18.35;100.00
49645;BME280;36494;50.730;-1.932;2022-09-03T08:57:00;100329.67;;;18.25;100.00
49645;BME280;36494;50.730;-1.932;2022-09-03T08:59:23;100336.08;;;18.22;100.00
49645;BME280;36494;50.730;-1.932;2022-09-03T09:01:53;100336.23;;;18.39;100.00
49645;BME280;36494;50.730;-1.932;2022-09-03T09:04:22;100337.75;;;18.60;100.00
49645;BME280;36494;50.730;-1.932;2022-09-03T09:06:43;100339.28;;;18.68;100.00
49645;BME280;36494;50.730;-1.932;2022-09-03T09:09:15;100339.30;;;18.64;100.00
49645;BME280;36494;50.730;-1.932;2022-09-03T09:11:39;100341.33;;;18.83;100.00
49645;BME280;36494;50.730;-1.932;2022-09-03T09:14:00;100341.62;;;19.01;100.00
49645;BME280;36494;50.730;-1.932;2022-09-03T09:16:28;100338.90;;;18.86;100.00
49645;BME280;36494;50.730;-1.932;2022-09-03T09:18:57;100343.61;;;18.98;100.00
49645;BME280;36494;50.730;-1.932;2022-09-03T09:21:15;100347.04;;;19.09;100.00
49645;BME280;36494;50.730;-1.932;2022-09-03T09:23:41;100345.38;;;18.98;100.00
49645;BME280;36494;50.730;-1.932;2022-09-03T09:26:06;100349.14;;;18.94;100.00
49645;BME280;36494;50.730;-1.932;2022-09-03T09:28:32;100349.23;;;18.89;100.00
49645;BME280;36494;50.730;-1.932;2022-09-03T09:30:55;100349.20;;;19.09;100.00
49645;BME280;36494;50.730;-1.932;2022-09-03T09:33:20;100352.66;;;19.04;100.00
49645;BME280;36494;50.730;-1.932;2022-09-03T09:35:46;100351.86;;;18.95;100.00
49645;BME280;36494;50.730;-1.932;2022-09-03T09:38:12;100351.72;;;18.97;100.00
49645;BME280;36494;50.730;-1.932;2022-09-03T09:40:38;100355.04;;;19.10;100.00
49645;BME280;36494;50.730;-1.932;2022-09-03T09:43:04;100357.43;;;19.22;100.00
49645;BME280;36494;50.730;-1.932;2022-09-03T09:45:27;100359.03;;;19.32;100.00
49645;BME280;36494;50.730;-1.932;2022-09-03T09:47:54;100363.75;;;19.12;100.00
49645;BME280;36494;50.730;-1.932;2022-09-03T09:50:19;100359.91;;;19.27;100.00
49645;BME280;36494;50.730;-1.932;2022-09-03T09:52:43;100359.91;;;19.39;100.00
49645;BME280;36494;50.730;-1.932;2022-09-03T09:55:13;100363.13;;;19.37;100.00
49645;BME280;36494;50.730;-1.932;2022-09-03T09:57:34;100365.83;;;19.16;100.00
49645;BME280;36494;50.730;-1.932;2022-09-03T10:00:04;100365.59;;;19.22;100.00
49645;BME280;36494;50.730;-1.932;2022-09-03T10:02:26;100362.61;;;19.31;100.00
49645;BME280;36494;50.730;-1.932;2022-09-03T10:04:50;100363.39;;;19.33;100.00
49645;BME280;36494;50.730;-1.932;2022-09-03T10:07:22;100359.96;;;19.19;100.00
49645;BME280;36494;50.730;-1.932;2022-09-03T10:09:41;100355.24;;;19.28;100.00
49645;BME280;36494;50.730;-1.932;2022-09-03T10:12:11;100355.19;;;19.37;100.00
49645;BME280;36494;50.730;-1.932;2022-09-03T10:14:36;100354.30;;;19.36;100.00
49645;BME280;36494;50.730;-1.932;2022-09-03T10:17:02;100352.85;;;19.31;100.00
49645;BME280;36494;50.730;-1.932;2022-09-03T10:19:29;100352.14;;;19.27;100.00
49645;BME280;36494;50.730;-1.932;2022-09-03T10:21:56;100355.67;;;19.26;100.00
49645;BME280;36494;50.730;-1.932;2022-09-03T10:24:27;100354.98;;;19.22;100.00
49645;BME280;36494;50.730;-1.932;2022-09-03T10:26:40;100355.37;;;19.22;100.00
49645;BME280;36494;50.730;-1.932;2022-09-03T10:29:06;100353.28;;;19.23;100.00
49645;BME280;36494;50.730;-1.932;2022-09-03T10:31:40;100356.03;;;19.42;100.00
49645;BME280;36494;50.730;-1.932;2022-09-03T10:34:00;100355.96;;;19.44;100.00
49645;BME280;36494;50.730;-1.932;2022-09-03T10:36:24;100352.40;;;19.58;100.00
49645;BME280;36494;50.730;-1.932;2022-09-03T10:38:52;100352.31;;;19.59;100.00
49645;BME280;36494;50.730;-1.932;2022-09-03T10:41:25;100354.45;;;19.46;100.00
49645;BME280;36494;50.730;-1.932;2022-09-03T10:43:55;100359.64;;;19.43;100.00
49645;BME280;36494;50.730;-1.932;2022-09-03T10:46:09;100357.51;;;19.46;100.00
49645;BME280;36494;50.730;-1.932;2022-09-03T10:48:40;100355.26;;;19.72;100.00
49645;BME280;36494;50.730;-1.932;2022-09-03T10:50:58;100354.31;;;19.64;100.00
49645;BME280;36494;50.730;-1.932;2022-09-03T10:53:32;100355.20;;;19.94;100.00
49645;BME280;36494;50.730;-1.932;2022-09-03T10:55:51;100352.24;;;19.93;100.00
49645;BME280;36494;50.730;-1.932;2022-09-03T10:58:25;100353.33;;;20.02;100.00
49645;BME280;36494;50.730;-1.932;2022-09-03T11:00:45;100347.99;;;20.22;100.00
49645;BME280;36494;50.730;-1.932;2022-09-03T11:03:23;100355.61;;;20.31;100.00
49645;BME280;36494;50.730;-1.932;2022-09-03T11:05:30;100352.35;;;20.16;100.00
49645;BME280;36494;50.730;-1.932;2022-09-03T11:07:58;100360.01;;;20.35;100.00
49645;BME280;36494;50.730;-1.932;2022-09-03T11:10:21;100360.96;;;20.34;100.00
49645;BME280;36494;50.730;-1.932;2022-09-03T11:12:47;100363.38;;;20.50;100.00
49645;BME280;36494;50.730;-1.932;2022-09-03T11:15:17;100365.45;;;20.56;100.00
49645;BME280;36494;50.730;-1.932;2022-09-03T11:17:38;100363.22;;;20.31;100.00
49645;BME280;36494;50.730;-1.932;2022-09-03T11:20:10;100362.83;;;20.34;100.00
49645;BME280;36494;50.730;-1.932;2022-09-03T11:22:26;100366.67;;;20.47;100.00
49645;BME280;36494;50.730;-1.932;2022-09-03T11:24:54;100363.10;;;20.24;100.00
49645;BME280;36494;50.730;-1.932;2022-09-03T11:27:27;100365.84;;;20.27;100.00
49645;BME280;36494;50.730;-1.932;2022-09-03T11:29:49;100365.51;;;20.29;100.00
49645;BME280;36494;50.730;-1.932;2022-09-03T11:32:13;100370.16;;;20.09;100.00
49645;BME280;36494;50.730;-1.932;2022-09-03T11:34:44;100371.43;;;20.08;100.00
49645;BME280;36494;50.730;-1.932;2022-09-03T11:37:06;100372.91;;;20.18;100.00
49645;BME280;36494;50.730;-1.932;2022-09-03T11:39:33;100371.52;;;19.95;100.00
49645;BME280;36494;50.730;-1.932;2022-09-03T11:41:57;100372.48;;;19.68;100.00
49645;BME280;36494;50.730;-1.932;2022-09-03T11:44:17;100373.74;;;19.84;100.00
49645;BME280;36494;50.730;-1.932;2022-09-03T11:46:52;100373.69;;;20.04;100.00
49645;BME280;36494;50.730;-1.932;2022-09-03T11:49:10;100371.37;;;19.90;100.00
49645;BME280;36494;50.730;-1.932;2022-09-03T11:51:33;100374.39;;;20.17;100.00
49645;BME280;36494;50.730;-1.932;2022-09-03T11:53:59;100378.20;;;20.50;100.00
49645;BME280;36494;50.730;-1.932;2022-09-03T11:56:22;100375.79;;;20.43;100.00
49645;BME280;36494;50.730;-1.932;2022-09-03T11:58:59;100378.39;;;20.57;100.00
49645;BME280;36494;50.730;-1.932;2022-09-03T12:01:15;100377.64;;;20.17;100.00
49645;BME280;36494;50.730;-1.932;2022-09-03T12:03:43;100371.78;;;20.34;100.00
49645;BME280;36494;50.730;-1.932;2022-09-03T12:06:17;100372.08;;;20.29;100.00
49645;BME280;36494;50.730;-1.932;2022-09-03T12:08:47;100375.57;;;20.16;100.00
49645;BME280;36494;50.730;-1.932;2022-09-03T12:11:01;100375.52;;;20.93;100.00
49645;BME280;36494;50.730;-1.932;2022-09-03T12:13:28;100379.38;;;20.53;100.00
49645;BME280;36494;50.730;-1.932;2022-09-03T12:15:54;100381.80;;;20.81;100.00
49645;BME280;36494;50.730;-1.932;2022-09-03T12:18:14;100381.80;;;21.07;100.00
49645;BME280;36494;50.730;-1.932;2022-09-03T12:20:37;100385.88;;;21.22;100.00